This is the latest recevied weather packets stored in our database for station/object W9PEM-13. If no packets are shown the sender has not sent any weather packets the latest 10 day(s).
| Time | Temp. | Humidity | Pressure | Rain* | Wind** | Luminosity | Snow |
|---|---|---|---|---|---|---|---|
| 1777991612 | 10° C | 47% | 977.8 hPa | 0 mm | - | 678 W/m² | - |
| 1777991105 | 9.44° C | 47% | 977.8 hPa | 0 mm | - | 177 W/m² | - |
| 1777990452 | 10° C | 46% | 977.8 hPa | 0 mm | - | 581 W/m² | - |
| 1777990413 | 10° C | 46% | 977.8 hPa | 0 mm | - | 581 W/m² | - |
| 1777989850 | 10° C | 48% | 977.7 hPa | 0 mm | - | 524 W/m² | - |
| 1777989812 | 10° C | 48% | 977.7 hPa | 0 mm | - | 524 W/m² | - |
| 1777989552 | 10° C | 48% | 977.7 hPa | 0 mm | - | 456 W/m² | - |
| 1777989212 | 10° C | 48% | 977.7 hPa | 0 mm | - | 456 W/m² | - |
| 1777988612 | 10° C | 46% | 977.6 hPa | 0 mm | - | 511 W/m² | - |
| 1777988011 | 9.44° C | 49% | 977.7 hPa | 0 mm | - | 471 W/m² | - |
| 1777987411 | 8.89° C | 51% | 977.8 hPa | 0 mm | - | 358 W/m² | - |
| 1777986811 | 8.33° C | 53% | 978 hPa | 0 mm | - | 187 W/m² | - |
| 1777986212 | 7.78° C | 53% | 977.6 hPa | 0 mm | - | 252 W/m² | - |
| 1777985612 | 7.78° C | 54% | 977.8 hPa | 0 mm | - | 110 W/m² | - |
| 1777985011 | 8.33° C | 53% | 978.1 hPa | 0 mm | - | 149 W/m² | - |
| 1777984412 | 7.78° C | 53% | 978.1 hPa | 0 mm | - | 279 W/m² | - |
| 1777983812 | 7.22° C | 55% | 977.9 hPa | 0 mm | - | 110 W/m² | - |
| 1777983211 | 7.22° C | 56% | 977.4 hPa | 0 mm | - | 102 W/m² | - |
| 1777982011 | 6.67° C | 57% | 976.7 hPa | 0 mm | - | 152 W/m² | - |
| 1777981411 | 5.56° C | 57% | 976.3 hPa | 0 mm | - | 75 W/m² | - |
| 1777980812 | 5° C | 60% | 976.5 hPa | 0 mm | - | 58 W/m² | - |
| 1777980211 | 5° C | 59% | 976.8 hPa | 0 mm | - | 38 W/m² | - |
| 1777979612 | 5° C | 59% | 976.7 hPa | 0 mm | - | 21 W/m² | - |
| 1777979011 | 5° C | 58% | 976.6 hPa | 0 mm | - | 16 W/m² | - |
| 1777978411 | 5.56° C | 57% | 976.3 hPa | 0 mm | - | 9 W/m² | - |
* Rain latest hour (hover to see other rain measurements)
** Current wind speed in m/s (hover to see current wind gust speed)